Time;durP1;ratioP1;P1;durP2;ratioP2;P2;SDS_P1;SDS_P2;PMS_P1;PMS_P2;Temp;Humidity;BMP_temperature;BMP_pressure;BME280_temperature;BME280_humidity;BME280_pressure;Samples;Min_cycle;Max_cycle;Signal;HPM_P1;HPM_P2
2022/06/12 00:00:44;;;;;;;7.32;6.07;;;;;;;-146.19;100.00;58918.88;5022753;28;20551;-53
2022/06/12 00:03:17;;;;;;;6.72;5.38;;;;;;;-146.19;100.00;58918.88;5023439;28;20160;-51
2022/06/12 00:05:48;;;;;;;7.35;5.95;;;;;;;-146.19;100.00;58918.88;5028015;28;20064;-55
2022/06/12 00:08:18;;;;;;;8.57;5.85;;;;;;;-146.19;100.00;58918.88;5019095;28;20491;-50
2022/06/12 00:10:48;;;;;;;6.78;6.05;;;;;;;-146.19;100.00;58918.88;5024356;28;20449;-51
2022/06/12 00:13:20;;;;;;;8.25;5.85;;;;;;;-146.19;100.00;58918.88;5024971;28;20076;-51
2022/06/12 00:15:48;;;;;;;7.18;5.63;;;;;;;-146.19;100.00;58918.88;5027315;28;20069;-55
2022/06/12 00:18:19;;;;;;;8.07;5.68;;;;;;;-146.19;100.00;58918.88;5026653;28;20464;-45
2022/06/12 00:20:48;;;;;;;7.47;5.80;;;;;;;-146.19;100.00;58918.88;5023712;28;20060;-51
2022/06/12 00:23:17;;;;;;;6.30;5.35;;;;;;;-146.19;100.00;58918.88;5024804;28;20452;-52
2022/06/12 00:25:46;;;;;;;6.10;5.47;;;;;;;-146.19;100.00;58918.88;5025414;28;20061;-46
2022/06/12 00:28:14;;;;;;;6.63;5.93;;;;;;;-146.19;100.00;58918.88;5021338;28;20500;-46
2022/06/12 00:30:43;;;;;;;9.35;5.72;;;;;;;-146.19;100.00;58918.88;5025198;28;20137;-55
2022/06/12 00:33:11;;;;;;;6.78;5.70;;;;;;;-146.19;100.00;58918.88;5017546;28;20076;-53
2022/06/12 00:35:41;;;;;;;8.43;5.75;;;;;;;-146.19;100.00;58918.88;5023896;28;20057;-51
2022/06/12 00:38:09;;;;;;;6.95;5.63;;;;;;;-146.19;100.00;58918.88;5025930;28;20064;-53
2022/06/12 00:40:38;;;;;;;7.28;5.53;;;;;;;-146.19;100.00;58918.88;5027048;28;20087;-53
2022/06/12 00:43:07;;;;;;;6.72;5.68;;;;;;;-146.19;100.00;58918.88;5029136;28;20081;-50
2022/06/12 00:45:42;;;;;;;6.38;5.25;;;;;;;-146.19;100.00;58918.88;5023742;28;20571;-50
2022/06/12 00:48:13;;;;;;;7.10;5.78;;;;;;;-146.19;100.00;58918.88;5020482;28;20065;-49
2022/06/12 00:50:47;;;;;;;8.57;5.88;;;;;;;-146.19;100.00;58918.88;5027188;28;20073;-57
2022/06/12 00:53:22;;;;;;;5.82;5.22;;;;;;;-146.19;100.00;58918.88;5023823;28;20075;-50
2022/06/12 00:55:58;;;;;;;8.20;5.53;;;;;;;-146.19;100.00;58918.88;5021878;28;20460;-51
2022/06/12 00:58:29;;;;;;;6.60;5.82;;;;;;;-146.19;100.00;58918.88;5023412;28;20081;-51
2022/06/12 01:00:57;;;;;;;6.22;5.00;;;;;;;-146.19;100.00;58918.88;5026312;28;20735;-51
2022/06/12 01:03:26;;;;;;;7.00;5.22;;;;;;;-146.19;100.00;58918.88;5017826;28;20492;-49
2022/06/12 01:08:42;;;;;;;7.60;5.72;;;;;;;-146.19;100.00;58918.88;5033712;28;20080;-49
2022/06/12 01:11:14;;;;;;;10.50;5.80;;;;;;;-146.19;100.00;58918.88;5023963;28;20058;-51
2022/06/12 01:13:46;;;;;;;7.75;5.38;;;;;;;-146.19;100.00;58918.88;5023085;28;20085;-54
2022/06/12 01:16:18;;;;;;;5.90;5.07;;;;;;;-146.19;100.00;58918.88;5017622;28;20068;-49
2022/06/12 01:18:49;;;;;;;6.53;5.82;;;;;;;-146.19;100.00;58918.88;5018150;28;20072;-53
2022/06/12 01:21:53;;;;;;;6.68;5.55;;;;;;;-146.19;100.00;58918.88;5020453;28;20516;-45
2022/06/12 01:24:48;;;;;;;9.20;5.90;;;;;;;-146.19;100.00;58918.88;5027924;28;20077;-49
2022/06/12 01:27:40;;;;;;;6.47;5.18;;;;;;;-146.19;100.00;58918.88;5024602;28;20061;-49
2022/06/12 01:30:13;;;;;;;8.05;5.70;;;;;;;-146.19;100.00;58918.88;5024769;28;20076;-52
2022/06/12 01:32:48;;;;;;;6.57;5.38;;;;;;;-146.19;100.00;58918.88;5026318;28;20073;-47
2022/06/12 01:35:22;;;;;;;8.68;5.55;;;;;;;-146.19;100.00;58918.88;5014697;28;20061;-52
2022/06/12 01:37:59;;;;;;;7.45;4.78;;;;;;;-146.19;100.00;58918.88;5018939;28;20069;-55
2022/06/12 01:40:35;;;;;;;6.55;4.88;;;;;;;-146.19;100.00;58918.88;5023242;28;20096;-51
2022/06/12 01:43:12;;;;;;;6.13;5.25;;;;;;;-146.19;100.00;58918.88;5025571;28;20477;-52
2022/06/12 01:45:46;;;;;;;7.80;5.68;;;;;;;-146.19;100.00;58918.88;5026031;28;20088;-52
2022/06/12 01:48:21;;;;;;;5.65;5.10;;;;;;;-146.19;100.00;58918.88;5022612;28;20073;-49
2022/06/12 01:50:55;;;;;;;7.97;5.85;;;;;;;-146.19;100.00;58918.88;5022334;28;20068;-49
2022/06/12 01:53:29;;;;;;;8.23;5.57;;;;;;;-146.19;100.00;58918.88;5020303;28;20079;-52
2022/06/12 01:56:01;;;;;;;7.50;5.40;;;;;;;-146.19;100.00;58918.88;5024029;28;20065;-49
2022/06/12 01:58:32;;;;;;;7.78;4.93;;;;;;;-146.19;100.00;58918.88;5024758;28;20470;-55
2022/06/12 02:01:09;;;;;;;5.85;5.05;;;;;;;-146.19;100.00;58918.88;5025264;28;20053;-50
2022/06/12 02:03:43;;;;;;;5.53;4.72;;;;;;;-146.19;100.00;58918.88;5026872;28;20136;-50
2022/06/12 02:06:15;;;;;;;9.38;5.45;;;;;;;-146.19;100.00;58918.88;5028311;28;20456;-49
2022/06/12 02:08:48;;;;;;;7.95;4.85;;;;;;;-146.19;100.00;58918.88;5021223;28;20080;-47
2022/06/12 02:14:09;;;;;;;7.50;5.63;;;;;;;-146.19;100.00;58918.88;5027093;28;20076;-48
2022/06/12 02:16:44;;;;;;;8.90;5.18;;;;;;;-146.19;100.00;58918.88;5023378;28;20049;-50
2022/06/12 02:19:15;;;;;;;7.15;5.70;;;;;;;-146.19;100.00;58918.88;5022033;28;20092;-52
2022/06/12 02:21:48;;;;;;;7.55;5.70;;;;;;;-146.19;100.00;58918.88;5025053;28;20045;-45
2022/06/12 02:24:21;;;;;;;7.18;5.40;;;;;;;-146.19;100.00;58918.88;5026173;28;20044;-48
2022/06/12 02:26:57;;;;;;;6.13;5.50;;;;;;;-146.19;100.00;58918.88;5023973;28;20042;-56
2022/06/12 02:29:30;;;;;;;7.97;5.75;;;;;;;-146.19;100.00;58918.88;5020661;28;20468;-49
2022/06/12 02:32:03;;;;;;;7.43;6.00;;;;;;;-146.19;100.00;58918.88;5020511;28;20203;-49
2022/06/12 02:34:35;;;;;;;7.68;6.20;;;;;;;-146.19;100.00;58918.88;5025166;28;20501;-52
2022/06/12 02:37:09;;;;;;;8.65;6.10;;;;;;;-146.19;100.00;58918.88;5023131;28;20155;-47
2022/06/12 02:39:41;;;;;;;7.20;5.88;;;;;;;-146.19;100.00;58918.88;5023597;28;20066;-52
2022/06/12 02:42:13;;;;;;;8.52;5.40;;;;;;;-146.19;100.00;58918.88;5024501;28;20073;-48
2022/06/12 02:44:47;;;;;;;6.78;5.50;;;;;;;-146.19;100.00;58918.88;5021566;28;20077;-52
2022/06/12 02:47:20;;;;;;;9.70;5.70;;;;;;;-146.19;100.00;58918.88;5019098;28;20072;-52
2022/06/12 02:49:50;;;;;;;6.85;5.82;;;;;;;-146.19;100.00;58918.88;5021226;28;20061;-53
2022/06/12 02:52:22;;;;;;;6.63;5.93;;;;;;;-146.19;100.00;58918.88;5012716;28;20081;-47
2022/06/12 02:55:07;;;;;;;9.13;6.00;;;;;;;-146.19;100.00;58918.88;5024740;28;21543;-53
2022/06/12 02:57:39;;;;;;;5.82;5.22;;;;;;;-146.19;100.00;58918.88;5022467;28;20058;-52
2022/06/12 03:00:16;;;;;;;7.10;5.22;;;;;;;-146.19;100.00;58918.88;5020753;28;20646;-55
2022/06/12 03:02:52;;;;;;;7.38;5.30;;;;;;;-146.19;100.00;58918.88;5022878;28;20061;-53
2022/06/12 03:05:24;;;;;;;9.60;5.47;;;;;;;-146.19;100.00;58918.88;5017258;28;20061;-58
2022/06/12 03:08:00;;;;;;;6.03;5.25;;;;;;;-146.19;100.00;58918.88;5020063;28;20527;-53
2022/06/12 03:10:31;;;;;;;7.43;5.93;;;;;;;-146.19;100.00;58918.88;5016845;28;20092;-49
2022/06/12 03:13:01;;;;;;;8.15;5.78;;;;;;;-146.19;100.00;58918.88;5026734;28;20077;-51
2022/06/12 03:15:37;;;;;;;7.93;5.68;;;;;;;-146.19;100.00;58918.88;5023778;28;20072;-53
2022/06/12 03:18:10;;;;;;;7.38;5.60;;;;;;;-146.19;100.00;58918.88;5020463;28;20107;-50
2022/06/12 03:20:46;;;;;;;7.97;5.38;;;;;;;-146.19;100.00;58918.88;5022092;28;20061;-57
2022/06/12 03:23:24;;;;;;;7.57;5.43;;;;;;;-146.19;100.00;58918.88;5019244;28;20065;-58
2022/06/12 03:25:56;;;;;;;6.97;5.60;;;;;;;-146.19;100.00;58918.88;5022150;28;20061;-55
2022/06/12 03:28:33;;;;;;;6.45;5.30;;;;;;;-146.19;100.00;58918.88;5016916;28;20084;-56
2022/06/12 03:31:07;;;;;;;8.10;5.53;;;;;;;-146.19;100.00;58918.88;5020189;28;20073;-51
2022/06/12 03:33:42;;;;;;;5.93;5.13;;;;;;;-146.19;100.00;58918.88;5018454;28;20520;-53
2022/06/12 03:36:16;;;;;;;6.03;5.43;;;;;;;-146.19;100.00;58918.88;5021344;28;20073;-53
2022/06/12 03:38:52;;;;;;;6.38;5.40;;;;;;;-146.19;100.00;58918.88;5022720;28;20425;-55
2022/06/12 03:41:24;;;;;;;9.48;4.63;;;;;;;-146.19;100.00;58918.88;5020437;28;20103;-51
2022/06/12 03:43:57;;;;;;;7.00;4.32;;;;;;;-146.19;100.00;58918.88;5024613;28;20065;-52
2022/06/12 03:46:30;;;;;;;6.03;5.43;;;;;;;-146.19;100.00;58918.88;5015966;28;20088;-58
2022/06/12 03:49:05;;;;;;;6.43;5.78;;;;;;;-146.19;100.00;58918.88;5019454;28;20088;-50
2022/06/12 03:51:37;;;;;;;6.68;5.50;;;;;;;-146.19;100.00;58918.88;5015758;28;20487;-48
2022/06/12 03:54:12;;;;;;;5.93;5.32;;;;;;;-146.19;100.00;58918.88;5024578;28;20061;-53
2022/06/12 03:59:34;;;;;;;5.95;5.35;;;;;;;-146.19;100.00;58918.88;5027971;28;20096;-54
2022/06/12 04:02:06;;;;;;;6.80;6.10;;;;;;;-146.19;100.00;58918.88;5020957;28;20065;-52
2022/06/12 04:04:38;;;;;;;6.95;5.82;;;;;;;-146.19;100.00;58918.88;5025715;28;20080;-51
2022/06/12 04:07:10;;;;;;;6.90;5.57;;;;;;;-146.19;100.00;58918.88;5021239;28;20081;-51
2022/06/12 04:09:41;;;;;;;8.88;6.03;;;;;;;-146.19;100.00;58918.88;5027338;28;20070;-53
2022/06/12 04:12:11;;;;;;;6.30;5.38;;;;;;;-146.19;100.00;58918.88;5020103;28;20073;-54
2022/06/12 04:14:40;;;;;;;;;;;;;;;-146.19;100.00;58918.88;5025597;28;20069;-55
2022/06/12 04:17:09;;;;;;;6.00;4.88;;;;;;;-146.19;100.00;58918.88;5023479;28;19964;-54
2022/06/12 04:22:23;;;;;;;5.95;4.95;;;;;;;-146.19;100.00;58918.88;5016594;28;20081;-51
2022/06/12 04:24:54;;;;;;;5.45;4.60;;;;;;;-146.19;100.00;58918.88;5023799;28;21495;-54
2022/06/12 04:27:25;;;;;;;5.43;5.00;;;;;;;-146.19;100.00;58918.88;5023488;28;20065;-52
2022/06/12 04:29:57;;;;;;;5.60;5.10;;;;;;;-146.19;100.00;58918.88;5019870;28;20061;-51
2022/06/12 04:32:27;;;;;;;6.15;5.10;;;;;;;-146.19;100.00;58918.88;5019559;28;20065;-54
2022/06/12 04:34:57;;;;;;;6.38;5.50;;;;;;;-146.19;100.00;58918.88;5023177;28;20072;-49
2022/06/12 04:37:28;;;;;;;8.98;5.63;;;;;;;-146.19;100.00;58918.88;5022599;28;20073;-52
2022/06/12 04:39:58;;;;;;;5.95;5.45;;;;;;;-146.19;100.00;58918.88;5027187;28;20061;-54
2022/06/12 04:42:30;;;;;;;7.18;5.40;;;;;;;-146.19;100.00;58918.88;5024514;28;20057;-54
2022/06/12 04:45:00;;;;;;;6.13;5.30;;;;;;;-146.19;100.00;58918.88;5015181;28;20074;-49
2022/06/12 04:47:29;;;;;;;;;;;;;;;-146.19;100.00;58918.88;5026140;28;20512;-53
2022/06/12 04:49:59;;;;;;;5.32;4.88;;;;;;;-146.19;100.00;58918.88;5023672;28;20387;-55
2022/06/12 04:52:28;;;;;;;;;;;;;;;-146.19;100.00;58918.88;5021532;28;20085;-55
2022/06/12 04:54:56;;;;;;;6.40;5.15;;;;;;;-146.19;100.00;58918.88;5029507;28;19992;-50
2022/06/12 04:57:25;;;;;;;5.15;4.70;;;;;;;-146.19;100.00;58918.88;5025897;28;20077;-54
2022/06/12 04:59:54;;;;;;;5.38;4.88;;;;;;;-146.19;100.00;58918.88;5025571;28;20524;-50
2022/06/12 05:02:23;;;;;;;5.43;4.75;;;;;;;-146.19;100.00;58918.88;5022713;28;20084;-54
2022/06/12 05:04:52;;;;;;;5.00;4.50;;;;;;;-146.19;100.00;58918.88;5021506;28;20064;-53
2022/06/12 05:07:22;;;;;;;5.53;5.00;;;;;;;-146.19;100.00;58918.88;5022951;28;20073;-54
2022/06/12 05:09:51;;;;;;;5.30;4.80;;;;;;;-146.19;100.00;58918.88;5000657;28;21520;-56
2022/06/12 05:12:19;;;;;;;5.43;4.93;;;;;;;-146.19;100.00;58918.88;5021869;28;20073;-51
2022/06/12 05:14:47;;;;;;;5.47;4.35;;;;;;;-146.19;100.00;58918.88;5020467;28;20327;-54
2022/06/12 05:17:22;;;;;;;5.03;4.53;;;;;;;-146.19;100.00;58918.88;5024764;28;20057;-55
2022/06/12 05:19:51;;;;;;;4.88;4.45;;;;;;;-146.19;100.00;58918.88;5023846;28;20065;-51
2022/06/12 05:22:23;;;;;;;5.45;4.53;;;;;;;-146.19;100.00;58918.88;5016177;28;20081;-55
2022/06/12 05:24:52;;;;;;;5.10;4.15;;;;;;;-146.19;100.00;58918.88;5022469;28;21264;-51
2022/06/12 05:27:22;;;;;;;4.97;4.47;;;;;;;-146.19;100.00;58918.88;5018986;28;20083;-50
2022/06/12 05:29:51;;;;;;;5.32;4.50;;;;;;;-146.19;100.00;58918.88;5018389;28;20551;-54
2022/06/12 05:32:22;;;;;;;4.55;4.15;;;;;;;-146.19;100.00;58918.88;5020808;28;20068;-56
2022/06/12 05:34:51;;;;;;;4.88;4.38;;;;;;;-146.19;100.00;58918.88;5021378;28;20087;-54
2022/06/12 05:37:20;;;;;;;4.53;4.20;;;;;;;-146.19;100.00;58918.88;5018302;28;20107;-52
2022/06/12 05:39:50;;;;;;;4.30;3.90;;;;;;;-146.19;100.00;58918.88;5024806;28;20080;-50
2022/06/12 05:42:18;;;;;;;6.65;3.90;;;;;;;-146.19;100.00;58918.88;5025687;28;20382;-52
2022/06/12 05:44:47;;;;;;;4.40;4.00;;;;;;;-146.19;100.00;58918.88;5022846;28;20061;-53
2022/06/12 05:47:15;;;;;;;5.22;3.95;;;;;;;-146.19;100.00;58918.88;5020826;28;20065;-55
2022/06/12 05:49:44;;;;;;;4.95;3.65;;;;;;;-146.19;100.00;58918.88;5033644;28;20072;-53
2022/06/12 05:52:12;;;;;;;4.30;3.90;;;;;;;-146.19;100.00;58918.88;5026327;28;20080;-55
2022/06/12 05:54:42;;;;;;;4.53;3.85;;;;;;;-146.19;100.00;58918.88;5026706;28;20057;-55
2022/06/12 05:57:12;;;;;;;4.43;4.03;;;;;;;-146.19;100.00;58918.88;5027113;28;20515;-52
2022/06/12 05:59:40;;;;;;;;;;;;;;;-146.19;100.00;58918.88;5016806;28;20061;-53
2022/06/12 06:02:08;;;;;;;4.38;3.33;;;;;;;-146.19;100.00;58918.88;5019960;28;19956;-51
2022/06/12 06:04:37;;;;;;;4.22;3.47;;;;;;;-146.19;100.00;58918.88;5021840;28;20081;-52
2022/06/12 06:07:05;;;;;;;5.47;3.30;;;;;;;-146.19;100.00;58918.88;5024172;28;20080;-49
2022/06/12 06:09:34;;;;;;;3.47;3.17;;;;;;;-146.19;100.00;58918.88;5024813;28;20073;-49
2022/06/12 06:12:02;;;;;;;6.20;3.60;;;;;;;-146.19;100.00;58918.88;5025868;28;20061;-56
2022/06/12 06:14:32;;;;;;;3.80;3.40;;;;;;;-146.19;100.00;58918.88;5016028;28;20069;-51
2022/06/12 06:17:06;;;;;;;4.35;3.80;;;;;;;-146.19;100.00;58918.88;5022360;28;20080;-51
2022/06/12 06:19:34;;;;;;;5.03;3.70;;;;;;;-146.19;100.00;58918.88;5013499;28;20104;-52
2022/06/12 06:22:03;;;;;;;4.65;3.63;;;;;;;-146.19;100.00;58918.88;5017627;28;20476;-52
2022/06/12 06:24:32;;;;;;;3.72;3.33;;;;;;;-146.19;100.00;58918.88;5020131;28;20061;-56
2022/06/12 06:27:00;;;;;;;3.78;3.47;;;;;;;-146.19;100.00;58918.88;5012285;28;20089;-52
2022/06/12 06:29:29;;;;;;;5.97;3.50;;;;;;;-146.19;100.00;58918.88;5016667;28;20069;-47
2022/06/12 06:31:59;;;;;;;5.05;3.55;;;;;;;-146.19;100.00;58918.88;5016753;28;20378;-61
2022/06/12 06:34:27;;;;;;;5.15;3.72;;;;;;;-146.19;100.00;58918.88;5017617;28;20077;-52
2022/06/12 06:36:55;;;;;;;4.28;3.88;;;;;;;-146.19;100.00;58918.88;5020102;28;20084;-55
2022/06/12 06:39:24;;;;;;;5.72;4.13;;;;;;;-146.19;100.00;58918.88;5019920;28;20451;-54
2022/06/12 06:41:53;;;;;;;5.30;3.90;;;;;;;-146.19;100.00;58918.88;5015810;28;20527;-51
2022/06/12 06:47:09;;;;;;;4.90;3.67;;;;;;;-146.19;100.00;58918.88;5022131;28;20104;-51
2022/06/12 06:49:38;;;;;;;5.53;4.13;;;;;;;-146.19;100.00;58918.88;5018354;28;20085;-53
2022/06/12 06:52:07;;;;;;;4.18;3.67;;;;;;;-146.19;100.00;58918.88;5021431;28;20061;-46
2022/06/12 06:54:36;;;;;;;5.63;4.00;;;;;;;-146.19;100.00;58918.88;5020800;28;20070;-48
2022/06/12 06:57:05;;;;;;;4.05;3.50;;;;;;;-146.19;100.00;58918.88;5022453;28;20068;-48
2022/06/12 06:59:34;;;;;;;4.20;3.80;;;;;;;-146.19;100.00;58918.88;5019201;28;20061;-51
2022/06/12 07:02:02;;;;;;;5.32;3.60;;;;;;;-146.19;100.00;58918.88;5023317;28;20485;-52
2022/06/12 07:04:33;;;;;;;5.00;3.78;;;;;;;-146.19;100.00;58918.88;5023399;28;20072;-51
2022/06/12 07:07:01;;;;;;;4.57;3.40;;;;;;;-146.19;100.00;58918.88;5018634;28;20547;-52
2022/06/12 07:09:30;;;;;;;4.10;3.70;;;;;;;-146.19;100.00;58918.88;5019134;28;20117;-53
2022/06/12 07:11:58;;;;;;;5.15;3.58;;;;;;;-146.19;100.00;58918.88;5019352;28;20065;-48
2022/06/12 07:14:27;;;;;;;3.65;3.35;;;;;;;-146.19;100.00;58918.88;5020303;28;20077;-48
2022/06/12 07:16:56;;;;;;;4.70;3.60;;;;;;;-146.19;100.00;58918.88;5023563;28;20068;-47
2022/06/12 07:19:25;;;;;;;4.38;3.90;;;;;;;-146.19;100.00;58918.88;5022880;28;20078;-55
2022/06/12 07:21:56;;;;;;;4.28;3.70;;;;;;;-146.19;100.00;58918.88;5019637;28;20230;-48
2022/06/12 07:24:28;;;;;;;4.60;3.28;;;;;;;-146.19;100.00;58918.88;5026982;28;20072;-51
2022/06/12 07:26:56;;;;;;;4.03;3.33;;;;;;;-146.19;100.00;58918.88;5020904;28;20057;-48
2022/06/12 07:29:25;;;;;;;6.60;3.75;;;;;;;-146.19;100.00;58918.88;5024985;28;20084;-52
2022/06/12 07:31:54;;;;;;;4.25;3.53;;;;;;;-146.19;100.00;58918.88;5019915;28;20057;-48
2022/06/12 07:34:22;;;;;;;4.63;3.85;;;;;;;-146.19;100.00;58918.88;5023347;28;20111;-46
2022/06/12 07:36:52;;;;;;;4.45;3.30;;;;;;;-146.19;100.00;58918.88;5027293;28;20520;-50
2022/06/12 07:39:26;;;;;;;4.82;3.80;;;;;;;-146.19;100.00;58918.88;5027712;28;20157;-48
2022/06/12 07:41:55;;;;;;;4.07;3.65;;;;;;;-146.19;100.00;58918.88;5023244;28;20068;-48
2022/06/12 07:44:25;;;;;;;5.70;3.90;;;;;;;-146.19;100.00;58918.88;5028758;28;20072;-48
2022/06/12 07:46:56;;;;;;;5.15;3.60;;;;;;;-146.19;100.00;58918.88;5024593;28;20065;-58
2022/06/12 07:49:26;;;;;;;6.03;3.70;;;;;;;-146.19;100.00;58918.88;5022495;28;20452;-52
2022/06/12 07:51:56;;;;;;;4.43;3.50;;;;;;;-146.19;100.00;58918.88;5005105;28;20464;-54
2022/06/12 07:54:30;;;;;;;5.57;3.50;;;;;;;-146.19;100.00;58918.88;5010059;28;20160;-57
2022/06/12 07:57:01;;;;;;;4.53;3.80;;;;;;;-146.19;100.00;58918.88;5022844;28;20069;-51
2022/06/12 07:59:31;;;;;;;5.93;4.03;;;;;;;-146.19;100.00;58918.88;5026939;28;20069;-54
2022/06/12 08:01:59;;;;;;;5.50;3.70;;;;;;;-146.19;100.00;58918.88;5026403;28;20053;-55
2022/06/12 08:04:29;;;;;;;4.07;3.63;;;;;;;-146.19;100.00;58918.88;5026221;28;20088;-52
2022/06/12 08:06:58;;;;;;;4.25;3.78;;;;;;;-146.19;100.00;58918.88;5026450;28;20112;-49
2022/06/12 08:09:28;;;;;;;3.60;3.15;;;;;;;-146.19;100.00;58918.88;5022917;28;20046;-56
2022/06/12 08:11:56;;;;;;;;;;;;;;;-146.19;100.00;58918.88;5026926;28;20057;-53
2022/06/12 08:14:25;;;;;;;3.97;3.50;;;;;;;-146.19;100.00;58918.88;5027931;28;20391;-56
2022/06/12 08:16:54;;;;;;;4.15;3.75;;;;;;;-146.19;100.00;58918.88;5025874;28;20065;-53
2022/06/12 08:22:10;;;;;;;4.93;3.63;;;;;;;-146.19;100.00;58918.88;5026641;28;20457;-48
2022/06/12 08:24:40;;;;;;;5.90;4.07;;;;;;;-146.19;100.00;58918.88;5021300;28;20064;-52
2022/06/12 08:27:08;;;;;;;5.07;3.83;;;;;;;-146.19;100.00;58918.88;5027142;28;20057;-53
2022/06/12 08:29:37;;;;;;;4.22;3.72;;;;;;;-146.19;100.00;58918.88;5023541;28;20073;-52
2022/06/12 08:32:09;;;;;;;5.45;3.47;;;;;;;-146.19;100.00;58918.88;5025207;28;20084;-48
2022/06/12 08:34:41;;;;;;;5.05;3.50;;;;;;;-146.19;100.00;58918.88;5023327;28;20081;-54
2022/06/12 08:37:13;;;;;;;5.75;3.53;;;;;;;-146.19;100.00;58918.88;5022359;28;20072;-55
2022/06/12 08:39:44;;;;;;;4.25;3.28;;;;;;;-146.19;100.00;58918.88;5022637;28;20089;-52
2022/06/12 08:42:18;;;;;;;4.80;3.30;;;;;;;-146.19;100.00;58918.88;5022572;28;20064;-52
2022/06/12 08:44:51;;;;;;;3.50;3.20;;;;;;;-146.19;100.00;58918.88;5024663;28;20470;-50
2022/06/12 08:47:24;;;;;;;5.75;3.20;;;;;;;-146.19;100.00;58918.88;5019125;28;20445;-55
2022/06/12 08:50:00;;;;;;;4.03;2.92;;;;;;;-146.19;100.00;58918.88;5023057;28;20076;-55
2022/06/12 08:52:32;;;;;;;3.20;2.90;;;;;;;-146.19;100.00;58918.88;5022739;28;20077;-54
2022/06/12 08:55:07;;;;;;;3.42;3.13;;;;;;;-146.19;100.00;58918.88;5022289;28;20076;-54
2022/06/12 08:57:41;;;;;;;4.18;2.90;;;;;;;-146.19;100.00;58918.88;5026133;28;20057;-55
2022/06/12 09:00:14;;;;;;;5.35;3.25;;;;;;;-146.19;100.00;58918.88;5023728;28;20072;-54
2022/06/12 09:02:46;;;;;;;3.42;3.05;;;;;;;-146.19;100.00;58918.88;5023101;28;20523;-54
2022/06/12 09:05:18;;;;;;;3.78;3.05;;;;;;;-146.19;100.00;58918.88;5021867;28;20061;-56
2022/06/12 09:07:51;;;;;;;3.28;2.53;;;;;;;-146.19;100.00;58918.88;5025947;28;20053;-52
2022/06/12 09:10:28;;;;;;;3.40;2.92;;;;;;;-146.19;100.00;58918.88;5021797;28;20076;-52
2022/06/12 09:13:05;;;;;;;3.72;2.88;;;;;;;-146.19;100.00;58918.88;5015411;28;20065;-54
2022/06/12 09:15:38;;;;;;;2.97;2.30;;;;;;;-146.19;100.00;58918.88;5038201;28;20069;-52
2022/06/12 09:18:12;;;;;;;2.83;2.10;;;;;;;-146.19;100.00;58918.88;5024529;28;20056;-50
2022/06/12 09:20:47;;;;;;;4.28;2.35;;;;;;;-146.19;100.00;58918.88;5023558;28;20069;-53
2022/06/12 09:23:24;;;;;;;2.88;2.40;;;;;;;-146.19;100.00;58918.88;5022941;28;20054;-56
2022/06/12 09:25:58;;;;;;;3.47;2.40;;;;;;;-146.19;100.00;58918.88;5022511;28;20073;-54
2022/06/12 09:28:35;;;;;;;4.05;2.47;;;;;;;-146.19;100.00;58918.88;5018346;28;20076;-52
2022/06/12 09:31:08;;;;;;;3.55;2.40;;;;;;;-146.19;100.00;58918.88;5016840;28;20084;-50
2022/06/12 09:33:43;;;;;;;3.08;2.40;;;;;;;-146.19;100.00;58918.88;5021453;28;20072;-58
2022/06/12 09:36:25;;;;;;;2.63;2.40;;;;;;;-146.19;100.00;58918.88;5025928;28;20076;-48
2022/06/12 09:39:03;;;;;;;3.22;2.28;;;;;;;-146.19;100.00;58918.88;5020333;28;20514;-54
2022/06/12 09:41:44;;;;;;;3.85;2.53;;;;;;;-146.19;100.00;58918.88;5021471;28;20543;-52
2022/06/12 09:44:17;;;;;;;3.33;2.33;;;;;;;-146.19;100.00;58918.88;5020852;28;20065;-51
2022/06/12 09:46:59;;;;;;;4.72;2.40;;;;;;;-146.19;100.00;58918.88;5021042;28;20474;-52
2022/06/12 09:49:34;;;;;;;2.40;2.20;;;;;;;-146.19;100.00;58918.88;5013336;28;20072;-48
2022/06/12 09:52:31;;;;;;;4.82;2.15;;;;;;;-146.19;100.00;58918.88;5023349;28;20077;-56
2022/06/12 09:55:03;;;;;;;2.72;2.10;;;;;;;-146.19;100.00;58918.88;5023025;28;21428;-53
2022/06/12 09:57:40;;;;;;;2.70;2.22;;;;;;;-146.19;100.00;58918.88;5015997;28;20069;-54
2022/06/12 10:00:16;;;;;;;2.92;2.33;;;;;;;-146.19;100.00;58918.88;5022161;28;20080;-52
2022/06/12 10:02:51;;;;;;;4.72;2.25;;;;;;;-146.19;100.00;58918.88;5024270;28;20045;-54
2022/06/12 10:05:24;;;;;;;3.78;2.30;;;;;;;-146.19;100.00;58918.88;5017370;28;20068;-48
2022/06/12 10:07:58;;;;;;;2.97;2.25;;;;;;;-146.19;100.00;58918.88;5025814;28;20061;-53
2022/06/12 10:10:30;;;;;;;3.70;2.33;;;;;;;-146.19;100.00;58918.88;5022994;28;20085;-58
2022/06/12 10:13:07;;;;;;;3.30;2.25;;;;;;;-146.19;100.00;58918.88;5025183;28;20073;-51
2022/06/12 10:15:39;;;;;;;2.63;2.15;;;;;;;-146.19;100.00;58918.88;5019517;28;20057;-48
2022/06/12 10:18:12;;;;;;;5.88;2.42;;;;;;;-146.19;100.00;58918.88;5018150;28;20532;-50
2022/06/12 10:20:45;;;;;;;3.78;2.05;;;;;;;-146.19;100.00;58918.88;5019190;28;20068;-56
2022/06/12 10:23:13;;;;;;;3.65;2.20;;;;;;;-146.19;100.00;58918.88;5019328;28;20072;-55
2022/06/12 10:25:53;;;;;;;2.30;2.10;;;;;;;-146.19;100.00;58918.88;5018830;28;20073;-51
2022/06/12 10:28:28;;;;;;;4.93;2.20;;;;;;;-146.19;100.00;58918.88;5018930;28;20077;-51
2022/06/12 10:31:04;;;;;;;4.10;2.15;;;;;;;-146.19;100.00;58918.88;5017245;28;22084;-54
2022/06/12 10:33:44;;;;;;;3.60;2.15;;;;;;;-146.19;100.00;58918.88;5015541;28;20058;-51
2022/06/12 10:36:18;;;;;;;;;;;;;;;-146.19;100.00;58918.88;5020031;28;20065;-54
2022/06/12 10:38:46;;;;;;;2.75;1.90;;;;;;;-146.19;100.00;58918.88;5018982;28;19971;-50
2022/06/12 10:41:24;;;;;;;5.32;2.10;;;;;;;-146.19;100.00;58918.88;5018394;28;20489;-54
2022/06/12 10:43:56;;;;;;;4.20;2.10;;;;;;;-146.19;100.00;58918.88;5019219;28;20065;-54
2022/06/12 10:46:26;;;;;;;3.80;2.10;;;;;;;-146.19;100.00;58918.88;5018851;28;20084;-55
2022/06/12 10:48:59;;;;;;;;;;;;;;;-146.19;100.00;58918.88;5021471;28;20472;-54
2022/06/12 10:51:34;;;;;;;4.00;2.00;;;;;;;-146.19;100.00;58918.88;5019403;28;19964;-55
2022/06/12 10:54:11;;;;;;;3.22;2.20;;;;;;;-146.19;100.00;58918.88;5018124;28;20076;-58
2022/06/12 10:56:45;;;;;;;2.35;1.90;;;;;;;-146.19;100.00;58918.88;5016126;28;20069;-54
2022/06/12 10:59:31;;;;;;;4.18;1.98;;;;;;;-146.19;100.00;58918.88;5018493;28;20715;-59
2022/06/12 11:02:18;;;;;;;3.33;2.08;;;;;;;-146.19;100.00;58918.88;5020645;28;20088;-54
2022/06/12 11:04:56;;;;;;;2.00;1.80;;;;;;;-146.19;100.00;58918.88;5017607;28;20057;-52
2022/06/12 11:07:32;;;;;;;2.22;1.90;;;;;;;-146.19;100.00;58918.88;5018037;28;20377;-57
2022/06/12 11:10:08;;;;;;;2.85;1.95;;;;;;;-146.19;100.00;58918.88;5017804;28;21081;-54
2022/06/12 11:12:53;;;;;;;3.92;2.22;;;;;;;-146.19;100.00;58918.88;5018826;28;20065;-55
2022/06/12 11:15:35;;;;;;;3.25;2.00;;;;;;;-146.19;100.00;58918.88;5015256;28;20527;-55
2022/06/12 11:18:17;;;;;;;4.03;1.90;;;;;;;-146.19;100.00;58918.88;5016647;28;20061;-52
2022/06/12 11:20:51;;;;;;;3.22;2.00;;;;;;;-146.19;100.00;58918.88;5017657;28;20072;-52
2022/06/12 11:23:47;;;;;;;3.72;2.15;;;;;;;-146.19;100.00;58918.88;5018631;28;20088;-51
2022/06/12 11:26:39;;;;;;;3.72;2.22;;;;;;;-146.19;100.00;58918.88;5017699;28;20065;-58
2022/06/12 11:29:20;;;;;;;2.90;2.20;;;;;;;-146.19;100.00;58918.88;5014910;28;20065;-56
2022/06/12 11:32:00;;;;;;;2.78;2.10;;;;;;;-146.19;100.00;58918.88;5020475;28;20473;-57
2022/06/12 11:34:37;;;;;;;2.75;2.05;;;;;;;-146.19;100.00;58918.88;5019163;28;20081;-52
2022/06/12 11:37:21;;;;;;;2.97;2.00;;;;;;;-146.19;100.00;58918.88;5022257;28;20085;-54
2022/06/12 11:39:54;;;;;;;3.47;1.90;;;;;;;-146.19;100.00;58918.88;5019914;28;20485;-50
2022/06/12 11:42:39;;;;;;;2.30;1.80;;;;;;;-146.19;100.00;58918.88;5018647;28;20431;-52
2022/06/12 11:45:34;;;;;;;3.33;2.03;;;;;;;-146.19;100.00;58918.88;5012835;28;20069;-48
2022/06/12 11:48:14;;;;;;;3.22;2.00;;;;;;;-146.19;100.00;58918.88;5016665;28;20551;-53
2022/06/12 11:50:47;;;;;;;3.72;2.13;;;;;;;-146.19;100.00;58918.88;5020308;28;20072;-56
2022/06/12 11:53:25;;;;;;;2.45;1.80;;;;;;;-146.19;100.00;58918.88;5018396;28;20066;-54